Etusivu
METAR-TAF:

METAR-TAF

Lentoasemat :

Beauvechain, Belgia

Leveyspiiri: 50-45N, Pituuspiiri: 004-46E, korkeus merenpinnasta: 105 m

Tämänhetkinen sää

Tämä raportti tehtiin 22 minuuttia sitten, kello 01.55 UTC
Tuuli 5 kn lännestä/lounaasta
Lämpötila 2°C
Kosteus 93%
Ilmanpaine 1025 hPa
Näkyvyys 10 km tai enemmän

METAR: EBBE 110155Z AUTO 25005KT 9999 FEW041/// 02/01 Q1025 BLU

Aika: 03:17 (02:17 UTC)

Sääennuste

Tämä raportti tehtiin 10 tuntia ja 36 minuuttia sitten, kello 15.41 UTC
Ennuste voimassa 10. päivästä klo 19 UTC - 11. päivään klo 07 UTC
Tuuli 7 kn lännestä/luoteesta
Näkyvyys 10 km tai enemmän
Hajanaisia pilviä 3000 ft:n korkeudessa
Ajoittain
11. päivästä klo 03 UTC - 11. päivään klo 05 UTC
Näkyvyys: 6000 m

TAF: EBBE 101541Z 1019/1107 29007KT 9999 SCT030 TEMPO 1103/1105 6000

Säähavainnot ja -ennusteet yli 4000 lentoasemalta (METAR- ja TAF-raportit).

Käytössä olevat sääasemat on merkitty karttaan keltaisilla ja punaisilla pisteillä.

Aseta hiiri pisteen päälle nähdäksesi sääaseman nimen.

Klikkaa sitten nähdäksesi säähavainnot ja -ennusteet.

Kartan vaihtaminen: klikkaa mustalla rastilla varustettuja vihreitä pisteitä, niin voit zoomata sisään; viivalla varustettua vihreää pistettä, niin voit zoomata ulos tai vihreitä nuolia, niin pääset viereisille kartoille.


METAR-TAF: